Central Valley, Utah
Current Conditions -  °F | °C
As of 5:52 AM on Sunday 21 Dec 2014 (Local Time) from KMLF Reporting Station
Few Clouds Few Clouds  
Wind Chill: 25°   Ceiling: Unl
Heat Index: 35°   Visibility: 10mi
Dew Point: 28°   Wind: 17mph
Humidity: 76%   Direction: 220°SW
Pressure: 30.05"   Gusts: NA
Location:  38.6125°N, 112.081°W
Report Text: KMLF 211252Z AUTO 22015KT 10SM FEW065 02/M02 A3005 RMK AO2 SLP174 T00171022 TSNO
Loading
Personal Weather Stations






























Interactive Weather Map New forecast layout! Learn more

10-Day Weather Forecast

Advertisements
Track Severe Weather on mobile